Погода Козловичина неделю

Брестская область, Белоруссия

23 - 29 июля
  • 23июля
    Сегодня
    +17°
    +27°
    Облачно с прояснениями
    ВремяПогодаТемператураВлажностьДавлениеВетер, м/сВероятность осадков
    00:00Ясно и безоблачно+19°C77 %734 мм2.0 м/с2 %
    03:00Ясно и безоблачно+17°C82 %734 мм2.3 м/с2 %
    06:00Ясно и безоблачно+16°C85 %734 мм1.8 м/с2 %
    09:00Ясно и безоблачно+22°C68 %735 мм1.2 м/с2 %
    12:00Небольшая облачность+25°C55 %735 мм1.8 м/с6 %
    15:00Облачно с прояснениями+26°C50 %735 мм0.9 м/с15 %
    18:00Облачно с прояснениями+25°C51 %735 мм1.2 м/с17 %
    21:00Облачно с прояснениями+23°C73 %735 мм1.6 м/с9 %
  • 24июля
    Среда
    +16°
    +26°
    Облачно с прояснениями
    ВремяПогодаТемператураВлажностьДавлениеВетер, м/сВероятность осадков
    00:00Облачно с прояснениями+20°C77 %734 мм1.6 м/с2 %
    03:00Практически безоблачно+18°C82 %734 мм1.8 м/с2 %
    06:00Небольшая облачность+18°C80 %734 мм2.8 м/с2 %
    09:00Облачно с прояснениями+21°C68 %734 мм3.2 м/с2 %
    12:00Облачно с прояснениями+22°C56 %734 мм3.3 м/с17 %
    15:00Облачно с прояснениями+24°C50 %733 мм3.1 м/с32 %
    18:00Пасмурно, дожди с грозами+24°C59 %733 мм1.2 м/с56 %
    21:00Облачно с прояснениями+21°C92 %732 мм1.0 м/с36 %
  • 25июля
    Четверг
    +15°
    +23°
    Облачно с прояснениями
    ВремяПогодаТемператураВлажностьДавлениеВетер, м/сВероятность осадков
    00:00Облачно с прояснениями+19°C86 %732 мм0.6 м/с22 %
    03:00Облачно с прояснениями+17°C92 %731 мм1.7 м/с18 %
    06:00Облачно с прояснениями+16°C85 %731 мм2.7 м/с18 %
    09:00Облачно с прояснениями+19°C67 %731 мм3.6 м/с22 %
    12:00Облачно с прояснениями+21°C53 %731 мм3.9 м/с31 %
    15:00Облачно с прояснениями+22°C48 %731 мм4.2 м/с49 %
    18:00Облачно с прояснениями+21°C69 %731 мм2.9 м/с47 %
    21:00Облачно с прояснениями+21°C78 %732 мм2.6 м/с35 %
  • 26июля
    Пятница
    +17°
    +25°
    Небольшая облачность
    ВремяПогодаТемператураВлажностьДавлениеВетер, м/сВероятность осадков
    00:00Небольшая облачность+17°C91 %732 мм2.0 м/с18 %
    03:00Ясно и безоблачно+15°C88 %732 мм2.1 м/с12 %
    06:00Практически безоблачно+16°C68 %732 мм2.0 м/с15 %
    09:00Практически безоблачно+20°C62 %733 мм2.1 м/с21 %
    12:00Практически безоблачно+23°C46 %734 мм1.9 м/с33 %
    15:00Небольшая облачность+23°C40 %734 мм0.4 м/с37 %
    18:00Небольшая облачность+24°C41 %735 мм0.9 м/с42 %
    21:00Практически безоблачно+23°C61 %735 мм2.0 м/с20 %
  • 27июля
    Суббота
    +17°
    +27°
    Практически безоблачно
    ВремяПогодаТемператураВлажностьДавлениеВетер, м/сВероятность осадков
    00:00Ясно и безоблачно+20°C57 %736 мм0.7 м/с6 %
    03:00Ясно и безоблачно+19°C61 %736 мм1.7 м/с2 %
    06:00Практически безоблачно+18°C67 %736 мм1.5 м/с2 %
    09:00Облачно с прояснениями+23°C60 %738 мм1.9 м/с2 %
    12:00Ясно и безоблачно+25°C42 %738 мм2.8 м/с16 %
    15:00Практически безоблачно+26°C43 %738 мм2.9 м/с29 %
    18:00Небольшая облачность и лёгкий дождик+26°C46 %738 мм3.3 м/с30 %
    21:00Ясно и безоблачно+24°C65 %738 мм2.2 м/с8 %
Мы используем cookies
Соглашаюсь